createdAt,value
2018-05-25T00:01:26.718Z,0.60
2018-05-25T00:03:54.240Z,0.70
2018-05-25T00:06:21.757Z,0.68
2018-05-25T00:08:49.291Z,0.70
2018-05-25T00:11:16.792Z,0.73
2018-05-25T00:13:44.715Z,0.70
2018-05-25T00:16:12.217Z,0.70
2018-05-25T00:18:39.728Z,0.70
2018-05-25T00:21:07.347Z,0.50
2018-05-25T00:23:34.850Z,0.90
2018-05-25T00:26:02.377Z,0.70
2018-05-25T00:28:29.878Z,0.85
2018-05-25T00:30:57.426Z,0.50
2018-05-25T00:33:24.929Z,0.57
2018-05-25T00:35:52.473Z,0.70
2018-05-25T00:38:20.822Z,0.70
2018-05-25T00:40:48.761Z,0.90
2018-05-25T00:43:16.281Z,0.60
2018-05-25T00:45:43.811Z,0.90
2018-05-25T00:48:13.050Z,0.80
2018-05-25T00:50:40.588Z,0.90
2018-05-25T00:53:08.100Z,0.87
2018-05-25T00:55:39.254Z,0.90
2018-05-25T00:58:06.755Z,0.87
2018-05-25T01:00:34.285Z,1.03
2018-05-25T01:03:01.800Z,0.80
2018-05-25T01:05:29.340Z,0.90
2018-05-25T01:07:56.841Z,1.00
2018-05-25T01:10:24.381Z,0.75
2018-05-25T01:12:51.905Z,0.93
2018-05-25T01:15:19.536Z,0.73
2018-05-25T01:17:47.033Z,1.00
2018-05-25T01:20:14.560Z,0.90
2018-05-25T01:22:42.112Z,0.90
2018-05-25T01:25:09.645Z,1.00
2018-05-25T01:27:37.142Z,0.90
2018-05-25T01:30:04.677Z,0.93
2018-05-25T01:32:32.192Z,0.82
2018-05-25T01:35:00.116Z,1.00
2018-05-25T01:37:27.621Z,0.77
2018-05-25T01:39:55.156Z,0.90
2018-05-25T01:42:23.044Z,1.05
2018-05-25T01:44:50.618Z,1.00
2018-05-25T01:47:18.118Z,1.03
2018-05-25T01:49:45.646Z,1.00
2018-05-25T01:52:13.148Z,0.87
2018-05-25T01:54:40.674Z,1.07
2018-05-25T01:57:08.183Z,1.07
2018-05-25T01:59:35.688Z,1.10
2018-05-25T02:02:03.248Z,0.80
2018-05-25T02:04:30.856Z,0.80
2018-05-25T02:06:58.515Z,1.00
2018-05-25T02:09:26.018Z,0.97
2018-05-25T02:11:53.540Z,1.03
2018-05-25T02:14:21.050Z,2.23
2018-05-25T02:16:48.569Z,1.00
2018-05-25T02:19:16.061Z,1.00
2018-05-25T02:21:43.980Z,1.10
2018-05-25T02:24:11.490Z,1.30
2018-05-25T02:26:40.003Z,1.10
2018-05-25T02:29:07.500Z,1.30
2018-05-25T02:31:35.038Z,1.30
2018-05-25T02:34:02.553Z,1.10
2018-05-25T02:36:48.805Z,1.10
2018-05-25T02:39:16.312Z,1.20
2018-05-25T02:41:43.841Z,0.90
2018-05-25T02:44:11.743Z,0.83
2018-05-25T02:46:40.390Z,1.05
2018-05-25T02:49:07.917Z,1.03
2018-05-25T02:51:35.451Z,1.30
2018-05-25T02:54:03.905Z,1.00
2018-05-25T02:56:31.443Z,1.40
2018-05-25T02:58:58.945Z,1.40
2018-05-25T03:01:26.473Z,1.37
2018-05-25T03:03:53.997Z,1.67
2018-05-25T03:06:21.921Z,1.80
2018-05-25T03:08:49.437Z,1.90
2018-05-25T03:11:16.977Z,1.90
2018-05-25T03:13:44.978Z,1.77
2018-05-25T03:16:12.513Z,2.00
2018-05-25T03:18:40.088Z,2.07
2018-05-25T03:21:07.622Z,2.27
2018-05-25T03:23:35.130Z,1.80
2018-05-25T03:26:02.683Z,1.90
2018-05-25T03:28:30.301Z,1.63
2018-05-25T03:30:57.969Z,2.07
2018-05-25T03:33:25.497Z,2.23
2018-05-25T03:35:53.072Z,1.93
2018-05-25T03:38:20.587Z,1.90
2018-05-25T03:40:48.598Z,1.70
2018-05-25T03:43:16.126Z,2.10
2018-05-25T03:45:44.119Z,1.70
2018-05-25T03:48:11.781Z,1.30
2018-05-25T03:50:39.276Z,1.57
2018-05-25T03:53:06.899Z,1.77
2018-05-25T03:55:34.406Z,1.70
2018-05-25T03:58:02.330Z,1.50
2018-05-25T04:00:41.794Z,1.50
2018-05-25T04:03:10.574Z,1.43
2018-05-25T04:05:38.089Z,1.63
2018-05-25T04:08:07.022Z,1.67
2018-05-25T04:10:34.538Z,1.30
2018-05-25T04:13:02.069Z,1.47
2018-05-25T04:15:29.577Z,1.63
2018-05-25T04:17:57.121Z,1.43
2018-05-25T04:20:24.620Z,1.27
2018-05-25T04:22:52.168Z,1.40
2018-05-25T04:25:20.072Z,1.60
2018-05-25T04:27:47.641Z,2.10
2018-05-25T04:30:15.590Z,1.40
2018-05-25T04:32:43.121Z,2.03
2018-05-25T04:35:10.617Z,2.40
2018-05-25T04:37:38.149Z,2.70
2018-05-25T04:40:05.644Z,2.00
2018-05-25T04:42:33.177Z,2.45
2018-05-25T04:45:01.880Z,2.20
2018-05-25T04:47:29.412Z,2.87
2018-05-25T04:49:57.466Z,2.80
2018-05-25T04:52:25.031Z,2.60
2018-05-25T04:54:52.534Z,2.60
2018-05-25T04:57:20.072Z,2.67
2018-05-25T04:59:47.606Z,2.65
2018-05-25T05:02:15.280Z,2.60
2018-05-25T05:04:42.925Z,2.53
2018-05-25T05:07:10.585Z,3.03
2018-05-25T05:09:38.237Z,3.50
2018-05-25T05:12:05.747Z,2.83
2018-05-25T05:14:33.563Z,3.60
2018-05-25T05:17:01.070Z,3.92
2018-05-25T05:19:29.013Z,2.97
2018-05-25T05:21:56.741Z,3.87
2018-05-25T05:24:24.295Z,3.53
2018-05-25T05:26:51.800Z,3.33
2018-05-25T05:29:19.327Z,3.60
2018-05-25T05:31:46.840Z,3.83
2018-05-25T05:34:14.415Z,2.80
2018-05-25T05:36:41.932Z,2.95
2018-05-25T05:39:09.875Z,2.62
2018-05-25T05:41:37.382Z,2.78
2018-05-25T05:44:04.916Z,3.05
2018-05-25T05:46:32.818Z,2.47
2018-05-25T05:49:00.462Z,3.10
2018-05-25T05:51:30.767Z,2.70
2018-05-25T05:53:58.358Z,2.92
2018-05-25T05:56:25.861Z,3.37
2018-05-25T05:58:53.862Z,4.75
2018-05-25T06:01:21.530Z,2.95
2018-05-25T06:03:49.182Z,4.00
2018-05-25T06:06:16.681Z,2.72
2018-05-25T06:08:44.301Z,2.50
2018-05-25T06:11:11.810Z,2.72
2018-05-25T06:13:39.453Z,2.35
2018-05-25T06:16:06.960Z,2.33
2018-05-25T06:18:34.519Z,2.35
2018-05-25T06:21:02.041Z,1.52
2018-05-25T06:23:29.560Z,2.20
2018-05-25T06:25:57.081Z,1.80
2018-05-25T06:28:24.617Z,1.67
2018-05-25T06:30:52.619Z,1.87
2018-05-25T06:33:20.292Z,1.62
2018-05-25T06:35:47.809Z,1.50
2018-05-25T06:38:15.309Z,1.60
2018-05-25T06:40:43.705Z,1.30
2018-05-25T06:43:11.310Z,1.48
2018-05-25T06:45:38.837Z,1.30
2018-05-25T06:48:06.741Z,1.10
2018-05-25T06:50:34.502Z,0.90
2018-05-25T06:53:02.022Z,1.33
2018-05-25T06:55:30.026Z,1.00
2018-05-25T06:57:57.583Z,0.70
2018-05-25T07:00:25.492Z,0.60
2018-05-25T07:02:53.021Z,0.80
2018-05-25T07:05:21.601Z,0.62
2018-05-25T07:07:49.113Z,0.80
2018-05-25T07:10:16.677Z,0.60
2018-05-25T07:12:44.244Z,0.50
2018-05-25T07:15:11.785Z,0.60
2018-05-25T07:17:39.292Z,0.60
2018-05-25T07:20:06.825Z,0.65
2018-05-25T07:22:34.478Z,0.73
2018-05-25T07:25:02.037Z,0.50
2018-05-25T07:27:29.593Z,0.70
2018-05-25T07:29:59.314Z,0.73
2018-05-25T07:32:26.826Z,0.55
2018-05-25T07:34:54.364Z,0.70
2018-05-25T07:37:21.879Z,0.62
2018-05-25T07:39:49.422Z,0.70
2018-05-25T07:42:16.934Z,0.70
2018-05-25T07:44:44.467Z,0.60
2018-05-25T07:47:12.293Z,0.70
2018-05-25T07:49:39.824Z,0.60
2018-05-25T07:52:07.397Z,0.60
2018-05-25T07:54:35.468Z,0.70
2018-05-25T07:57:02.979Z,0.57
2018-05-25T07:59:30.516Z,0.65
2018-05-25T08:01:58.030Z,0.60
2018-05-25T08:04:25.698Z,0.52
2018-05-25T08:06:53.193Z,0.75
2018-05-25T08:09:20.929Z,0.60
2018-05-25T08:11:48.476Z,0.57
2018-05-25T08:14:16.124Z,0.57
2018-05-25T08:16:43.667Z,0.60
2018-05-25T08:19:11.229Z,0.60
2018-05-25T08:21:38.941Z,0.70
2018-05-25T08:24:06.554Z,0.57
2018-05-25T08:26:34.218Z,0.70
2018-05-25T08:29:01.726Z,0.60
2018-05-25T08:31:29.743Z,0.75
2018-05-25T08:33:57.245Z,0.70
2018-05-25T08:36:24.794Z,0.60
2018-05-25T08:38:52.293Z,0.60
2018-05-25T08:41:19.988Z,0.65
2018-05-25T08:43:48.046Z,0.55
2018-05-25T08:46:15.590Z,0.50
2018-05-25T08:48:43.107Z,0.62
2018-05-25T08:51:10.636Z,0.80
2018-05-25T08:53:38.261Z,0.70
2018-05-25T08:56:05.797Z,1.10
2018-05-25T08:58:33.315Z,0.62
2018-05-25T09:01:00.942Z,0.80
2018-05-25T09:03:28.449Z,0.80
2018-05-25T09:05:55.994Z,0.73
2018-05-25T09:08:23.498Z,0.70
2018-05-25T09:10:51.029Z,0.65
2018-05-25T09:13:18.529Z,0.60
2018-05-25T09:15:46.061Z,0.70
2018-05-25T09:18:13.557Z,0.62
2018-05-25T09:20:42.134Z,0.55
2018-05-25T09:23:09.749Z,0.88
2018-05-25T09:25:37.403Z,1.00
2018-05-25T09:28:05.061Z,1.08
2018-05-25T09:30:32.598Z,1.00
2018-05-25T09:33:00.492Z,0.80
2018-05-25T09:35:28.255Z,0.75
2018-05-25T09:37:55.783Z,0.70
2018-05-25T09:40:23.301Z,0.55
2018-05-25T09:42:50.836Z,0.80
2018-05-25T09:45:18.333Z,0.55
2018-05-25T09:47:46.252Z,0.55
2018-05-25T09:50:13.791Z,0.80
2018-05-25T09:52:48.085Z,0.90
2018-05-25T09:55:15.584Z,0.80
2018-05-25T09:57:54.081Z,0.80
2018-05-25T10:00:21.594Z,0.68
2018-05-25T10:02:49.129Z,0.77
2018-05-25T10:05:16.919Z,1.05
2018-05-25T10:07:44.610Z,0.88
2018-05-25T10:10:12.122Z,0.98
2018-05-25T10:12:40.053Z,0.90
2018-05-25T10:15:09.840Z,0.80
2018-05-25T10:17:37.498Z,0.70
2018-05-25T10:20:05.464Z,0.70
2018-05-25T10:22:32.997Z,0.70
2018-05-25T10:25:00.510Z,0.70
2018-05-25T10:27:28.037Z,0.77
2018-05-25T10:29:55.538Z,0.90
2018-05-25T10:32:23.085Z,0.88
2018-05-25T10:34:50.591Z,0.90
2018-05-25T10:37:18.123Z,1.10
2018-05-25T10:39:45.626Z,0.90
2018-05-25T10:42:13.471Z,0.80
2018-05-25T10:44:40.969Z,1.10
2018-05-25T10:47:08.497Z,1.17
2018-05-25T10:49:36.242Z,1.10
2018-05-25T10:52:03.781Z,1.40
2018-05-25T10:54:31.342Z,1.10
2018-05-25T10:56:58.880Z,1.05
2018-05-25T10:59:26.886Z,1.02
2018-05-25T11:01:54.538Z,1.37
2018-05-25T11:04:22.034Z,1.05
2018-05-25T11:06:49.553Z,1.17
2018-05-25T11:09:17.086Z,1.05
2018-05-25T11:11:44.768Z,1.48
2018-05-25T11:14:12.431Z,1.70
2018-05-25T11:16:40.084Z,1.10
2018-05-25T11:19:07.819Z,1.20
2018-05-25T11:21:35.397Z,1.45
2018-05-25T11:24:03.046Z,1.50
2018-05-25T11:26:30.714Z,1.40
2018-05-25T11:28:58.368Z,1.50
2018-05-25T11:31:26.033Z,1.85
2018-05-25T11:33:53.673Z,2.78
2018-05-25T11:36:21.177Z,1.30
2018-05-25T11:38:48.719Z,1.23
2018-05-25T11:41:16.262Z,1.00
2018-05-25T11:43:43.793Z,0.95
2018-05-25T11:46:11.319Z,1.17
2018-05-25T11:48:39.025Z,1.30
2018-05-25T11:51:06.687Z,1.20
2018-05-25T11:53:34.243Z,1.23
2018-05-25T11:56:01.742Z,0.70
2018-05-25T11:58:29.276Z,0.80
2018-05-25T12:00:56.782Z,0.95
2018-05-25T12:03:24.775Z,0.82
2018-05-25T12:05:52.287Z,0.75
2018-05-25T12:08:20.293Z,1.00
2018-05-25T12:10:47.805Z,1.00
2018-05-25T12:13:15.407Z,0.80
2018-05-25T12:15:42.915Z,1.10
2018-05-25T12:18:10.448Z,1.20
2018-05-25T12:20:39.737Z,1.37
2018-05-25T12:23:07.474Z,1.20
2018-05-25T12:25:34.978Z,1.25
2018-05-25T12:28:02.533Z,1.30
2018-05-25T12:30:30.034Z,1.48
2018-05-25T12:32:57.709Z,1.60
2018-05-25T12:35:25.261Z,1.27
2018-05-25T12:37:53.123Z,1.25
2018-05-25T12:40:20.690Z,1.35
2018-05-25T12:42:48.205Z,1.48
2018-05-25T12:45:16.289Z,1.50
2018-05-25T12:47:44.398Z,1.58
2018-05-25T12:50:12.905Z,1.50
2018-05-25T12:52:40.423Z,1.70
2018-05-25T12:55:07.948Z,2.53
2018-05-25T12:57:35.457Z,1.48
2018-05-25T13:00:03.390Z,1.70
2018-05-25T13:02:31.553Z,1.92
2018-05-25T13:04:59.308Z,1.40
2018-05-25T13:07:26.816Z,1.37
2018-05-25T13:09:55.522Z,1.40
2018-05-25T13:12:23.506Z,1.37
2018-05-25T13:14:51.044Z,1.50
2018-05-25T13:17:18.942Z,1.33
2018-05-25T13:19:46.497Z,1.60
2018-05-25T13:22:14.009Z,1.23
2018-05-25T13:24:41.961Z,1.20
2018-05-25T13:27:09.480Z,1.12
2018-05-25T13:29:37.005Z,1.02
2018-05-25T13:32:04.590Z,1.12
2018-05-25T13:34:32.146Z,1.10
2018-05-25T13:36:59.702Z,1.02
2018-05-25T13:39:27.243Z,1.20
2018-05-25T13:41:54.762Z,1.30
2018-05-25T13:44:22.464Z,1.50
2018-05-25T13:46:49.979Z,1.08
2018-05-25T13:49:17.526Z,1.52
2018-05-25T13:51:45.039Z,1.40
2018-05-25T13:54:13.254Z,1.20
2018-05-25T13:56:40.770Z,0.82
2018-05-25T13:59:08.430Z,0.88
2018-05-25T14:01:36.078Z,0.98
2018-05-25T14:04:03.811Z,0.98
2018-05-25T14:06:31.736Z,1.05
2018-05-25T14:08:59.265Z,0.90
2018-05-25T14:11:26.974Z,1.08
2018-05-25T14:13:54.593Z,1.30
2018-05-25T14:16:22.247Z,0.80
2018-05-25T14:18:49.769Z,1.30
2018-05-25T14:21:18.320Z,1.10
2018-05-25T14:23:47.693Z,1.20
2018-05-25T14:26:15.221Z,1.30
2018-05-25T14:28:42.735Z,1.10
2018-05-25T14:31:10.857Z,1.17
2018-05-25T14:33:38.369Z,0.80
2018-05-25T14:36:06.305Z,1.48
2018-05-25T14:38:33.807Z,1.30
2018-05-25T14:41:01.329Z,1.10
2018-05-25T14:43:28.850Z,1.37
2018-05-25T14:45:56.394Z,1.40
2018-05-25T14:48:23.903Z,1.10
2018-05-25T14:50:51.853Z,1.30
2018-05-25T14:53:19.373Z,1.30
2018-05-25T14:55:47.029Z,1.50
2018-05-25T14:58:14.529Z,1.98
2018-05-25T15:00:42.072Z,1.35
2018-05-25T15:03:10.810Z,1.20
2018-05-25T15:05:38.356Z,1.40
2018-05-25T15:08:06.262Z,1.20
2018-05-25T15:10:33.811Z,1.27
2018-05-25T15:13:01.465Z,1.30
2018-05-25T15:15:29.006Z,2.55
2018-05-25T15:17:56.576Z,3.35
2018-05-25T15:20:24.105Z,3.10
2018-05-25T15:22:51.997Z,3.30
2018-05-25T15:25:19.552Z,2.85
2018-05-25T15:27:47.201Z,3.22
2018-05-25T15:30:14.717Z,3.50
2018-05-25T15:32:42.910Z,3.58
2018-05-25T15:35:10.261Z,3.08
2018-05-25T15:37:38.181Z,3.45
2018-05-25T15:40:05.710Z,3.03
2018-05-25T15:42:33.245Z,2.95
2018-05-25T15:45:00.826Z,3.25
2018-05-25T15:47:28.362Z,3.15
2018-05-25T15:49:55.868Z,3.95
2018-05-25T15:52:23.500Z,2.97
2018-05-25T15:54:50.997Z,2.87
2018-05-25T15:57:18.542Z,3.10
2018-05-25T15:59:46.054Z,3.33
2018-05-25T16:02:13.631Z,2.60
2018-05-25T16:04:41.710Z,2.85
2018-05-25T16:07:09.253Z,3.10
2018-05-25T16:09:37.463Z,2.90
2018-05-25T16:12:05.068Z,2.92
2018-05-25T16:14:32.671Z,3.22
2018-05-25T16:17:00.202Z,2.83
2018-05-25T16:19:27.853Z,2.28
2018-05-25T16:21:55.392Z,2.90
2018-05-25T16:24:22.948Z,2.40
2018-05-25T16:26:50.611Z,2.08
2018-05-25T16:29:18.130Z,2.22
2018-05-25T16:31:46.061Z,2.40
2018-05-25T16:34:13.574Z,2.28
2018-05-25T16:36:42.269Z,2.67
2018-05-25T16:39:09.930Z,2.65
2018-05-25T16:41:37.469Z,2.67
2018-05-25T16:44:04.988Z,3.12
2018-05-25T16:46:32.556Z,2.58
2018-05-25T16:49:00.457Z,2.80
2018-05-25T16:51:27.981Z,2.33
2018-05-25T16:53:55.909Z,2.55
2018-05-25T16:56:23.526Z,2.40
2018-05-25T16:58:51.082Z,2.33
2018-05-25T17:01:19.884Z,1.90
2018-05-25T17:03:47.415Z,2.53
2018-05-25T17:06:15.041Z,3.00
2018-05-25T17:08:42.584Z,2.50
2018-05-25T17:11:10.095Z,2.58
2018-05-25T17:13:37.634Z,2.10
2018-05-25T17:16:05.529Z,2.33
2018-05-25T17:18:33.085Z,1.77
2018-05-25T17:21:01.617Z,2.12
2018-05-25T17:23:29.569Z,1.62
2018-05-25T17:25:57.499Z,1.60
2018-05-25T17:28:25.050Z,1.80
2018-05-25T17:30:52.562Z,1.77
2018-05-25T17:33:20.101Z,2.03
2018-05-25T17:35:47.620Z,1.62
2018-05-25T17:38:15.146Z,2.20
2018-05-25T17:40:42.644Z,2.28
2018-05-25T17:43:10.201Z,1.98
2018-05-25T17:45:37.729Z,2.05
2018-05-25T17:48:05.273Z,2.10
2018-05-25T17:50:33.581Z,1.98
2018-05-25T17:53:01.114Z,2.35
2018-05-25T17:55:28.768Z,2.10
2018-05-25T17:57:56.311Z,1.62
2018-05-25T18:00:24.209Z,1.85
2018-05-25T18:02:51.739Z,2.12
2018-05-25T18:05:19.934Z,1.65
2018-05-25T18:07:47.467Z,2.17
2018-05-25T18:10:14.982Z,1.98
2018-05-25T18:12:42.521Z,1.98
2018-05-25T18:15:10.032Z,2.33
2018-05-25T18:17:37.913Z,2.10
2018-05-25T18:20:05.573Z,1.98
2018-05-25T18:22:33.118Z,1.90
2018-05-25T18:25:00.694Z,2.40
2018-05-25T18:27:28.260Z,2.05
2018-05-25T18:29:55.814Z,1.95
2018-05-25T18:32:23.363Z,2.17
2018-05-25T18:34:50.919Z,2.05
2018-05-25T18:37:18.430Z,2.42
2018-05-25T18:39:46.438Z,2.30
2018-05-25T18:42:13.953Z,2.80
2018-05-25T18:44:41.882Z,2.10
2018-05-25T18:47:09.381Z,2.10
2018-05-25T18:49:37.668Z,2.30
2018-05-25T18:52:05.186Z,2.60
2018-05-25T18:54:33.637Z,2.47
2018-05-25T18:57:03.380Z,2.83
2018-05-25T18:59:30.925Z,2.12
2018-05-25T19:01:58.437Z,2.37
2018-05-25T19:04:27.053Z,2.00
2018-05-25T19:06:54.577Z,2.33
2018-05-25T19:09:22.131Z,2.25
2018-05-25T19:11:49.690Z,2.22
2018-05-25T19:14:17.347Z,2.42
2018-05-25T19:16:45.005Z,2.42
2018-05-25T19:19:12.539Z,2.40
2018-05-25T19:21:40.113Z,2.78
2018-05-25T19:24:07.645Z,2.22
2018-05-25T19:26:35.542Z,2.37
2018-05-25T19:29:03.077Z,1.95
2018-05-25T19:31:30.752Z,2.60
2018-05-25T19:33:58.281Z,2.30
2018-05-25T19:36:26.185Z,3.08
2018-05-25T19:38:53.730Z,2.30
2018-05-25T19:41:21.393Z,3.05
2018-05-25T19:43:49.033Z,2.12
2018-05-25T19:46:16.545Z,2.70
2018-05-25T19:48:44.729Z,2.53
2018-05-25T19:51:12.239Z,2.80
2018-05-25T19:53:39.774Z,2.35
2018-05-25T19:56:07.341Z,3.03
2018-05-25T19:58:36.572Z,3.25
2018-05-25T20:01:04.110Z,3.20
2018-05-25T20:03:31.652Z,3.42
2018-05-25T20:05:59.160Z,4.37
2018-05-25T20:08:26.699Z,3.15
2018-05-25T20:10:54.318Z,2.65
2018-05-25T20:13:22.101Z,2.20
2018-05-25T20:15:50.594Z,2.55
2018-05-25T20:18:18.129Z,2.90
2018-05-25T20:20:46.454Z,2.42
2018-05-25T20:23:14.377Z,2.30
2018-05-25T20:25:42.082Z,3.03
2018-05-25T20:28:09.582Z,2.55
2018-05-25T20:30:37.394Z,2.55
2018-05-25T20:33:04.902Z,2.62
2018-05-25T20:35:32.436Z,3.08
2018-05-25T20:37:59.944Z,3.45
2018-05-25T20:40:27.656Z,3.58
2018-05-25T20:42:55.154Z,3.05
2018-05-25T20:45:22.764Z,2.90
2018-05-25T20:47:50.275Z,3.05
2018-05-25T20:50:17.827Z,2.90
2018-05-25T20:52:45.337Z,2.80
2018-05-25T20:55:12.874Z,3.37
2018-05-25T20:57:40.438Z,3.60
2018-05-25T21:00:08.113Z,3.47
2018-05-25T21:02:35.629Z,3.55
2018-05-25T21:05:03.570Z,3.35
2018-05-25T21:07:31.078Z,3.75
2018-05-25T21:09:58.741Z,4.40
2018-05-25T21:12:26.275Z,4.65
2018-05-25T21:14:53.806Z,4.72
2018-05-25T21:17:21.318Z,3.90
2018-05-25T21:19:48.929Z,3.62
2018-05-25T21:22:16.433Z,3.70
2018-05-25T21:24:43.972Z,3.30
2018-05-25T21:27:11.477Z,3.25
2018-05-25T21:29:38.997Z,3.25
2018-05-25T21:32:06.514Z,3.03
2018-05-25T21:34:34.445Z,2.87
2018-05-25T21:37:02.638Z,3.17
2018-05-25T21:39:30.561Z,2.53
2018-05-25T21:41:58.089Z,2.70
2018-05-25T21:44:25.641Z,2.50
2018-05-25T21:46:53.166Z,2.80
2018-05-25T21:49:20.671Z,2.65
2018-05-25T21:51:48.333Z,2.75
2018-05-25T21:54:15.851Z,2.65
2018-05-25T21:56:43.369Z,2.58
2018-05-25T21:59:10.868Z,2.47
2018-05-25T22:01:38.393Z,2.67
2018-05-25T22:04:05.889Z,2.80
2018-05-25T22:06:33.454Z,2.58
2018-05-25T22:09:01.117Z,2.62
2018-05-25T22:11:28.764Z,2.85
2018-05-25T22:13:56.431Z,3.05
2018-05-25T22:16:24.019Z,2.97
2018-05-25T22:18:51.635Z,3.10
2018-05-25T22:21:19.189Z,2.75
2018-05-25T22:23:46.709Z,2.83
2018-05-25T22:26:14.309Z,2.22
2018-05-25T22:28:41.819Z,2.80
2018-05-25T22:31:09.347Z,2.67
2018-05-25T22:33:36.989Z,2.70
2018-05-25T22:36:04.533Z,2.78
2018-05-25T22:38:32.037Z,2.50
2018-05-25T22:40:59.665Z,2.20
2018-05-25T22:43:39.005Z,2.05
2018-05-25T22:46:18.365Z,2.67
2018-05-25T22:48:57.641Z,2.40
2018-05-25T22:51:36.908Z,2.17
2018-05-25T22:54:09.540Z,2.58
2018-05-25T22:56:37.071Z,3.33
2018-05-25T22:59:04.968Z,2.50
2018-05-25T23:01:32.498Z,2.80
2018-05-25T23:04:00.958Z,2.58
2018-05-25T23:06:28.481Z,2.25
2018-05-25T23:08:56.137Z,2.70
2018-05-25T23:11:24.265Z,2.95
2018-05-25T23:13:52.170Z,3.22
2018-05-25T23:16:19.701Z,2.58
2018-05-25T23:18:47.364Z,2.37
2018-05-25T23:21:15.030Z,2.25
2018-05-25T23:23:42.541Z,2.45
2018-05-25T23:26:10.086Z,2.87
2018-05-25T23:28:37.605Z,3.30
2018-05-25T23:31:05.370Z,2.47
2018-05-25T23:33:33.113Z,2.50
2018-05-25T23:36:00.622Z,2.70
2018-05-25T23:38:28.150Z,3.10
2018-05-25T23:40:55.686Z,2.42
2018-05-25T23:43:23.222Z,2.60
2018-05-25T23:45:51.700Z,2.85
2018-05-25T23:48:19.277Z,2.60
2018-05-25T23:50:46.797Z,2.62
2018-05-25T23:53:14.807Z,2.60
2018-05-25T23:55:42.458Z,2.60
2018-05-25T23:58:10.110Z,2.72
